sensor_id;sensor_type;location;lat;lon;timestamp;P1;durP1;ratioP1;P2;durP2;ratioP2
72325;SDS011;60278;47.980;18.780;2024-01-30T00:00:09;47.65;;;24.55;;
72325;SDS011;60278;47.980;18.780;2024-01-30T00:03:12;52.03;;;24.10;;
72325;SDS011;60278;47.980;18.780;2024-01-30T00:06:14;52.78;;;26.42;;
72325;SDS011;60278;47.980;18.780;2024-01-30T00:09:16;50.47;;;24.53;;
72325;SDS011;60278;47.980;18.780;2024-01-30T00:12:19;61.85;;;31.55;;
72325;SDS011;60278;47.980;18.780;2024-01-30T00:15:21;57.47;;;28.70;;
72325;SDS011;60278;47.980;18.780;2024-01-30T00:18:23;57.55;;;28.40;;
72325;SDS011;60278;47.980;18.780;2024-01-30T00:21:25;49.33;;;24.85;;
72325;SDS011;60278;47.980;18.780;2024-01-30T00:24:27;49.73;;;23.80;;
72325;SDS011;60278;47.980;18.780;2024-01-30T00:27:29;50.60;;;28.35;;
72325;SDS011;60278;47.980;18.780;2024-01-30T00:30:31;50.30;;;26.70;;
72325;SDS011;60278;47.980;18.780;2024-01-30T00:33:33;48.85;;;26.00;;
72325;SDS011;60278;47.980;18.780;2024-01-30T00:36:36;49.00;;;26.20;;
72325;SDS011;60278;47.980;18.780;2024-01-30T00:39:38;63.67;;;29.20;;
72325;SDS011;60278;47.980;18.780;2024-01-30T00:42:43;123.40;;;56.63;;
72325;SDS011;60278;47.980;18.780;2024-01-30T00:45:45;92.85;;;47.25;;
72325;SDS011;60278;47.980;18.780;2024-01-30T00:48:48;57.35;;;27.27;;
72325;SDS011;60278;47.980;18.780;2024-01-30T00:51:50;60.50;;;30.30;;
72325;SDS011;60278;47.980;18.780;2024-01-30T00:54:52;58.67;;;31.57;;
72325;SDS011;60278;47.980;18.780;2024-01-30T00:57:54;52.50;;;26.13;;
72325;SDS011;60278;47.980;18.780;2024-01-30T01:00:56;50.45;;;28.25;;
72325;SDS011;60278;47.980;18.780;2024-01-30T01:03:58;55.80;;;26.75;;
72325;SDS011;60278;47.980;18.780;2024-01-30T01:07:01;39.47;;;20.92;;
72325;SDS011;60278;47.980;18.780;2024-01-30T01:10:03;43.50;;;21.43;;
72325;SDS011;60278;47.980;18.780;2024-01-30T01:13:05;45.25;;;23.65;;
72325;SDS011;60278;47.980;18.780;2024-01-30T01:16:07;46.35;;;23.95;;
72325;SDS011;60278;47.980;18.780;2024-01-30T01:19:10;43.75;;;23.88;;
72325;SDS011;60278;47.980;18.780;2024-01-30T01:22:12;41.85;;;22.70;;
72325;SDS011;60278;47.980;18.780;2024-01-30T01:25:14;42.70;;;21.80;;
72325;SDS011;60278;47.980;18.780;2024-01-30T01:28:17;37.63;;;20.48;;
72325;SDS011;60278;47.980;18.780;2024-01-30T01:31:19;40.67;;;21.33;;
72325;SDS011;60278;47.980;18.780;2024-01-30T01:34:24;63.40;;;35.17;;
72325;SDS011;60278;47.980;18.780;2024-01-30T01:37:31;50.75;;;26.85;;
72325;SDS011;60278;47.980;18.780;2024-01-30T01:40:33;49.03;;;26.77;;
72325;SDS011;60278;47.980;18.780;2024-01-30T01:43:35;52.90;;;26.02;;
72325;SDS011;60278;47.980;18.780;2024-01-30T01:46:39;59.50;;;31.17;;
72325;SDS011;60278;47.980;18.780;2024-01-30T01:49:42;51.33;;;28.80;;
72325;SDS011;60278;47.980;18.780;2024-01-30T01:52:45;55.50;;;26.87;;
72325;SDS011;60278;47.980;18.780;2024-01-30T01:55:48;54.50;;;28.23;;
72325;SDS011;60278;47.980;18.780;2024-01-30T01:58:50;46.92;;;26.15;;
72325;SDS011;60278;47.980;18.780;2024-01-30T02:01:54;55.38;;;28.23;;
72325;SDS011;60278;47.980;18.780;2024-01-30T02:04:57;50.42;;;27.10;;
72325;SDS011;60278;47.980;18.780;2024-01-30T02:07:59;49.10;;;27.07;;
72325;SDS011;60278;47.980;18.780;2024-01-30T02:11:01;46.95;;;25.00;;
72325;SDS011;60278;47.980;18.780;2024-01-30T02:14:03;46.80;;;25.38;;
72325;SDS011;60278;47.980;18.780;2024-01-30T02:17:06;45.55;;;23.20;;
72325;SDS011;60278;47.980;18.780;2024-01-30T02:20:08;38.70;;;21.42;;
72325;SDS011;60278;47.980;18.780;2024-01-30T02:23:11;38.27;;;20.10;;
72325;SDS011;60278;47.980;18.780;2024-01-30T02:26:14;36.88;;;18.60;;
72325;SDS011;60278;47.980;18.780;2024-01-30T02:29:16;44.33;;;20.50;;
72325;SDS011;60278;47.980;18.780;2024-01-30T02:32:18;35.42;;;19.08;;
72325;SDS011;60278;47.980;18.780;2024-01-30T02:35:20;38.05;;;19.73;;
72325;SDS011;60278;47.980;18.780;2024-01-30T02:38:22;42.05;;;20.45;;
72325;SDS011;60278;47.980;18.780;2024-01-30T02:41:25;37.40;;;20.70;;
72325;SDS011;60278;47.980;18.780;2024-01-30T02:44:27;37.83;;;19.02;;
72325;SDS011;60278;47.980;18.780;2024-01-30T02:47:29;54.22;;;26.05;;
72325;SDS011;60278;47.980;18.780;2024-01-30T02:50:31;44.57;;;24.47;;
72325;SDS011;60278;47.980;18.780;2024-01-30T02:53:33;45.70;;;24.15;;
72325;SDS011;60278;47.980;18.780;2024-01-30T02:56:35;37.42;;;21.08;;
72325;SDS011;60278;47.980;18.780;2024-01-30T02:59:37;40.85;;;20.65;;
72325;SDS011;60278;47.980;18.780;2024-01-30T03:02:39;33.70;;;19.15;;
72325;SDS011;60278;47.980;18.780;2024-01-30T03:05:41;35.97;;;19.03;;
72325;SDS011;60278;47.980;18.780;2024-01-30T03:08:43;36.40;;;19.52;;
72325;SDS011;60278;47.980;18.780;2024-01-30T03:11:45;48.08;;;21.63;;
72325;SDS011;60278;47.980;18.780;2024-01-30T03:14:48;43.03;;;19.40;;
72325;SDS011;60278;47.980;18.780;2024-01-30T03:17:51;40.30;;;21.60;;
72325;SDS011;60278;47.980;18.780;2024-01-30T03:20:53;41.10;;;19.67;;
72325;SDS011;60278;47.980;18.780;2024-01-30T03:23:55;40.00;;;20.75;;
72325;SDS011;60278;47.980;18.780;2024-01-30T03:26:57;39.15;;;20.30;;
72325;SDS011;60278;47.980;18.780;2024-01-30T03:29:59;35.58;;;19.52;;
72325;SDS011;60278;47.980;18.780;2024-01-30T03:33:01;47.08;;;21.25;;
72325;SDS011;60278;47.980;18.780;2024-01-30T03:36:04;35.10;;;20.47;;
72325;SDS011;60278;47.980;18.780;2024-01-30T03:39:06;43.60;;;22.55;;
72325;SDS011;60278;47.980;18.780;2024-01-30T03:42:08;40.03;;;20.80;;
72325;SDS011;60278;47.980;18.780;2024-01-30T03:45:10;43.88;;;22.52;;
72325;SDS011;60278;47.980;18.780;2024-01-30T03:48:12;44.83;;;21.93;;
72325;SDS011;60278;47.980;18.780;2024-01-30T03:51:14;52.40;;;24.08;;
72325;SDS011;60278;47.980;18.780;2024-01-30T03:54:18;74.18;;;32.95;;
72325;SDS011;60278;47.980;18.780;2024-01-30T03:57:20;71.75;;;32.55;;
72325;SDS011;60278;47.980;18.780;2024-01-30T04:00:23;52.85;;;26.88;;
72325;SDS011;60278;47.980;18.780;2024-01-30T04:03:26;42.73;;;23.93;;
72325;SDS011;60278;47.980;18.780;2024-01-30T04:06:28;45.60;;;21.73;;
72325;SDS011;60278;47.980;18.780;2024-01-30T04:09:30;40.58;;;22.00;;
72325;SDS011;60278;47.980;18.780;2024-01-30T04:12:32;39.17;;;19.90;;
72325;SDS011;60278;47.980;18.780;2024-01-30T04:15:34;37.35;;;19.85;;
72325;SDS011;60278;47.980;18.780;2024-01-30T04:18:36;48.47;;;24.77;;
72325;SDS011;60278;47.980;18.780;2024-01-30T04:21:38;62.33;;;28.52;;
72325;SDS011;60278;47.980;18.780;2024-01-30T04:24:40;83.60;;;40.28;;
72325;SDS011;60278;47.980;18.780;2024-01-30T04:27:43;75.18;;;38.10;;
72325;SDS011;60278;47.980;18.780;2024-01-30T04:30:45;57.70;;;29.30;;
72325;SDS011;60278;47.980;18.780;2024-01-30T04:33:47;42.27;;;21.60;;
72325;SDS011;60278;47.980;18.780;2024-01-30T04:36:49;44.28;;;23.40;;
72325;SDS011;60278;47.980;18.780;2024-01-30T04:39:51;49.75;;;24.33;;
72325;SDS011;60278;47.980;18.780;2024-01-30T04:42:54;49.65;;;26.70;;
72325;SDS011;60278;47.980;18.780;2024-01-30T04:45:56;56.57;;;28.07;;
72325;SDS011;60278;47.980;18.780;2024-01-30T04:48:58;53.35;;;27.17;;
72325;SDS011;60278;47.980;18.780;2024-01-30T04:52:00;50.45;;;25.75;;
72325;SDS011;60278;47.980;18.780;2024-01-30T04:55:02;61.90;;;32.25;;
72325;SDS011;60278;47.980;18.780;2024-01-30T04:58:04;51.05;;;27.08;;
72325;SDS011;60278;47.980;18.780;2024-01-30T05:01:06;46.07;;;22.90;;
72325;SDS011;60278;47.980;18.780;2024-01-30T05:04:09;45.75;;;23.75;;
72325;SDS011;60278;47.980;18.780;2024-01-30T05:07:16;49.80;;;25.33;;
72325;SDS011;60278;47.980;18.780;2024-01-30T05:10:18;51.35;;;25.05;;
72325;SDS011;60278;47.980;18.780;2024-01-30T05:13:20;47.00;;;24.83;;
72325;SDS011;60278;47.980;18.780;2024-01-30T05:16:23;51.67;;;24.43;;
72325;SDS011;60278;47.980;18.780;2024-01-30T05:19:25;47.80;;;25.05;;
72325;SDS011;60278;47.980;18.780;2024-01-30T05:22:27;53.20;;;29.33;;
72325;SDS011;60278;47.980;18.780;2024-01-30T05:25:29;56.47;;;27.58;;
72325;SDS011;60278;47.980;18.780;2024-01-30T05:28:31;43.30;;;23.23;;
72325;SDS011;60278;47.980;18.780;2024-01-30T05:31:33;49.67;;;24.98;;
72325;SDS011;60278;47.980;18.780;2024-01-30T05:34:36;55.65;;;26.95;;
72325;SDS011;60278;47.980;18.780;2024-01-30T05:37:38;47.17;;;25.95;;
72325;SDS011;60278;47.980;18.780;2024-01-30T05:40:40;57.00;;;27.48;;
72325;SDS011;60278;47.980;18.780;2024-01-30T05:43:42;45.00;;;25.67;;
72325;SDS011;60278;47.980;18.780;2024-01-30T05:46:44;50.70;;;24.90;;
72325;SDS011;60278;47.980;18.780;2024-01-30T05:49:46;48.03;;;26.35;;
72325;SDS011;60278;47.980;18.780;2024-01-30T05:52:48;38.85;;;21.83;;
72325;SDS011;60278;47.980;18.780;2024-01-30T05:55:50;46.77;;;23.17;;
72325;SDS011;60278;47.980;18.780;2024-01-30T05:58:52;56.45;;;25.30;;
72325;SDS011;60278;47.980;18.780;2024-01-30T06:01:54;49.72;;;24.95;;
72325;SDS011;60278;47.980;18.780;2024-01-30T06:04:58;51.40;;;27.05;;
72325;SDS011;60278;47.980;18.780;2024-01-30T06:08:00;55.38;;;31.65;;
72325;SDS011;60278;47.980;18.780;2024-01-30T06:11:02;58.13;;;28.43;;
72325;SDS011;60278;47.980;18.780;2024-01-30T06:14:04;60.85;;;28.05;;
72325;SDS011;60278;47.980;18.780;2024-01-30T06:17:06;55.67;;;26.55;;
72325;SDS011;60278;47.980;18.780;2024-01-30T06:20:08;69.82;;;31.67;;
72325;SDS011;60278;47.980;18.780;2024-01-30T06:23:10;67.53;;;30.03;;
72325;SDS011;60278;47.980;18.780;2024-01-30T06:26:14;111.18;;;36.33;;
72325;SDS011;60278;47.980;18.780;2024-01-30T06:29:16;48.20;;;23.98;;
72325;SDS011;60278;47.980;18.780;2024-01-30T06:32:21;36.60;;;19.30;;
72325;SDS011;60278;47.980;18.780;2024-01-30T06:35:23;65.80;;;27.00;;
72325;SDS011;60278;47.980;18.780;2024-01-30T06:38:25;109.35;;;42.05;;
72325;SDS011;60278;47.980;18.780;2024-01-30T06:41:27;69.53;;;31.08;;
72325;SDS011;60278;47.980;18.780;2024-01-30T06:44:29;70.35;;;30.60;;
72325;SDS011;60278;47.980;18.780;2024-01-30T06:47:34;70.97;;;30.98;;
72325;SDS011;60278;47.980;18.780;2024-01-30T06:50:36;51.10;;;24.63;;
72325;SDS011;60278;47.980;18.780;2024-01-30T06:53:38;40.97;;;20.42;;
72325;SDS011;60278;47.980;18.780;2024-01-30T06:56:40;37.90;;;20.00;;
72325;SDS011;60278;47.980;18.780;2024-01-30T06:59:42;47.58;;;23.45;;
72325;SDS011;60278;47.980;18.780;2024-01-30T07:02:46;38.95;;;21.80;;
72325;SDS011;60278;47.980;18.780;2024-01-30T07:05:48;43.60;;;22.53;;
72325;SDS011;60278;47.980;18.780;2024-01-30T07:08:50;38.33;;;20.60;;
72325;SDS011;60278;47.980;18.780;2024-01-30T07:11:53;42.78;;;22.67;;
72325;SDS011;60278;47.980;18.780;2024-01-30T07:14:55;43.58;;;23.50;;
72325;SDS011;60278;47.980;18.780;2024-01-30T07:17:58;40.85;;;22.27;;
72325;SDS011;60278;47.980;18.780;2024-01-30T07:21:00;44.50;;;22.03;;
72325;SDS011;60278;47.980;18.780;2024-01-30T07:24:02;45.20;;;23.30;;
72325;SDS011;60278;47.980;18.780;2024-01-30T07:27:05;48.72;;;24.23;;
72325;SDS011;60278;47.980;18.780;2024-01-30T07:30:07;44.35;;;22.73;;
72325;SDS011;60278;47.980;18.780;2024-01-30T07:33:09;46.15;;;23.02;;
72325;SDS011;60278;47.980;18.780;2024-01-30T07:36:12;44.43;;;23.20;;
72325;SDS011;60278;47.980;18.780;2024-01-30T07:39:14;50.40;;;24.23;;
72325;SDS011;60278;47.980;18.780;2024-01-30T07:42:16;39.45;;;23.27;;
72325;SDS011;60278;47.980;18.780;2024-01-30T07:45:19;46.53;;;24.98;;
72325;SDS011;60278;47.980;18.780;2024-01-30T07:48:24;43.40;;;25.48;;
72325;SDS011;60278;47.980;18.780;2024-01-30T07:51:26;46.70;;;25.00;;
72325;SDS011;60278;47.980;18.780;2024-01-30T07:54:30;50.25;;;24.83;;
72325;SDS011;60278;47.980;18.780;2024-01-30T07:57:41;57.20;;;29.75;;
72325;SDS011;60278;47.980;18.780;2024-01-30T08:00:43;59.08;;;31.48;;
72325;SDS011;60278;47.980;18.780;2024-01-30T08:03:45;62.72;;;31.48;;
72325;SDS011;60278;47.980;18.780;2024-01-30T08:06:47;50.57;;;26.13;;
72325;SDS011;60278;47.980;18.780;2024-01-30T08:09:50;55.35;;;27.08;;
72325;SDS011;60278;47.980;18.780;2024-01-30T08:12:52;47.13;;;25.42;;
72325;SDS011;60278;47.980;18.780;2024-01-30T08:15:54;49.55;;;24.98;;
72325;SDS011;60278;47.980;18.780;2024-01-30T08:18:58;46.65;;;23.33;;
72325;SDS011;60278;47.980;18.780;2024-01-30T08:22:00;39.53;;;24.00;;
72325;SDS011;60278;47.980;18.780;2024-01-30T08:25:06;46.40;;;24.97;;
72325;SDS011;60278;47.980;18.780;2024-01-30T08:28:08;40.35;;;22.05;;
72325;SDS011;60278;47.980;18.780;2024-01-30T08:31:10;40.50;;;21.75;;
72325;SDS011;60278;47.980;18.780;2024-01-30T08:34:14;42.33;;;24.05;;
72325;SDS011;60278;47.980;18.780;2024-01-30T08:37:16;39.63;;;22.90;;
72325;SDS011;60278;47.980;18.780;2024-01-30T08:40:18;44.47;;;23.90;;
72325;SDS011;60278;47.980;18.780;2024-01-30T08:43:20;42.55;;;21.70;;
72325;SDS011;60278;47.980;18.780;2024-01-30T08:46:23;39.28;;;21.27;;
72325;SDS011;60278;47.980;18.780;2024-01-30T08:49:25;34.75;;;20.60;;
72325;SDS011;60278;47.980;18.780;2024-01-30T08:52:28;32.97;;;18.73;;
72325;SDS011;60278;47.980;18.780;2024-01-30T08:55:30;35.33;;;20.23;;
72325;SDS011;60278;47.980;18.780;2024-01-30T08:58:32;29.48;;;17.80;;
72325;SDS011;60278;47.980;18.780;2024-01-30T09:01:34;30.30;;;20.65;;
72325;SDS011;60278;47.980;18.780;2024-01-30T09:04:36;32.33;;;17.85;;
72325;SDS011;60278;47.980;18.780;2024-01-30T09:07:39;31.23;;;19.93;;
72325;SDS011;60278;47.980;18.780;2024-01-30T09:10:42;31.87;;;17.90;;
72325;SDS011;60278;47.980;18.780;2024-01-30T09:13:44;30.23;;;17.92;;
72325;SDS011;60278;47.980;18.780;2024-01-30T09:16:46;33.72;;;20.10;;
72325;SDS011;60278;47.980;18.780;2024-01-30T09:19:50;31.08;;;18.98;;
72325;SDS011;60278;47.980;18.780;2024-01-30T09:22:52;32.77;;;18.10;;
72325;SDS011;60278;47.980;18.780;2024-01-30T09:25:55;34.00;;;19.93;;
72325;SDS011;60278;47.980;18.780;2024-01-30T09:28:57;34.38;;;19.10;;
72325;SDS011;60278;47.980;18.780;2024-01-30T09:32:00;31.20;;;18.00;;
72325;SDS011;60278;47.980;18.780;2024-01-30T09:35:02;34.97;;;18.20;;
72325;SDS011;60278;47.980;18.780;2024-01-30T09:38:04;39.27;;;19.37;;
72325;SDS011;60278;47.980;18.780;2024-01-30T09:41:09;30.83;;;17.87;;
72325;SDS011;60278;47.980;18.780;2024-01-30T09:44:12;33.17;;;19.05;;
72325;SDS011;60278;47.980;18.780;2024-01-30T09:47:15;31.10;;;18.45;;
72325;SDS011;60278;47.980;18.780;2024-01-30T09:50:19;36.28;;;20.27;;
72325;SDS011;60278;47.980;18.780;2024-01-30T09:53:21;33.83;;;18.93;;
72325;SDS011;60278;47.980;18.780;2024-01-30T09:56:24;31.93;;;18.63;;
72325;SDS011;60278;47.980;18.780;2024-01-30T09:59:26;29.60;;;17.60;;
72325;SDS011;60278;47.980;18.780;2024-01-30T10:02:28;32.65;;;18.23;;
72325;SDS011;60278;47.980;18.780;2024-01-30T10:05:31;32.78;;;17.67;;
72325;SDS011;60278;47.980;18.780;2024-01-30T10:08:35;27.93;;;17.23;;
72325;SDS011;60278;47.980;18.780;2024-01-30T10:11:37;28.50;;;17.90;;
72325;SDS011;60278;47.980;18.780;2024-01-30T10:14:40;31.85;;;18.23;;
72325;SDS011;60278;47.980;18.780;2024-01-30T10:17:42;29.67;;;18.48;;
72325;SDS011;60278;47.980;18.780;2024-01-30T10:20:44;36.28;;;18.05;;
72325;SDS011;60278;47.980;18.780;2024-01-30T10:23:46;31.63;;;18.57;;
72325;SDS011;60278;47.980;18.780;2024-01-30T10:26:48;29.80;;;18.73;;
72325;SDS011;60278;47.980;18.780;2024-01-30T10:29:53;27.70;;;17.13;;
72325;SDS011;60278;47.980;18.780;2024-01-30T10:32:56;33.40;;;18.40;;
72325;SDS011;60278;47.980;18.780;2024-01-30T10:36:00;29.75;;;16.65;;
72325;SDS011;60278;47.980;18.780;2024-01-30T10:39:03;25.10;;;16.07;;
72325;SDS011;60278;47.980;18.780;2024-01-30T10:42:11;30.43;;;16.23;;
72325;SDS011;60278;47.980;18.780;2024-01-30T10:45:13;27.38;;;14.05;;
72325;SDS011;60278;47.980;18.780;2024-01-30T10:48:18;26.35;;;15.02;;
72325;SDS011;60278;47.980;18.780;2024-01-30T10:51:26;24.20;;;13.90;;
72325;SDS011;60278;47.980;18.780;2024-01-30T10:54:28;22.65;;;14.23;;
72325;SDS011;60278;47.980;18.780;2024-01-30T10:57:30;23.67;;;13.47;;
72325;SDS011;60278;47.980;18.780;2024-01-30T11:00:33;19.38;;;13.32;;
72325;SDS011;60278;47.980;18.780;2024-01-30T11:03:36;26.50;;;15.43;;
72325;SDS011;60278;47.980;18.780;2024-01-30T11:06:41;26.10;;;14.63;;
72325;SDS011;60278;47.980;18.780;2024-01-30T11:09:54;22.47;;;13.47;;
72325;SDS011;60278;47.980;18.780;2024-01-30T11:13:13;25.10;;;14.00;;
72325;SDS011;60278;47.980;18.780;2024-01-30T11:16:15;25.50;;;16.25;;
72325;SDS011;60278;47.980;18.780;2024-01-30T11:19:23;24.30;;;14.93;;
72325;SDS011;60278;47.980;18.780;2024-01-30T11:22:30;21.90;;;13.20;;
72325;SDS011;60278;47.980;18.780;2024-01-30T11:25:32;23.97;;;13.50;;
72325;SDS011;60278;47.980;18.780;2024-01-30T11:28:35;20.13;;;12.90;;
72325;SDS011;60278;47.980;18.780;2024-01-30T11:31:39;19.75;;;13.13;;
72325;SDS011;60278;47.980;18.780;2024-01-30T11:34:41;18.10;;;11.30;;
72325;SDS011;60278;47.980;18.780;2024-01-30T11:37:46;19.35;;;12.43;;
72325;SDS011;60278;47.980;18.780;2024-01-30T11:40:51;23.13;;;13.50;;
72325;SDS011;60278;47.980;18.780;2024-01-30T11:43:54;23.00;;;13.10;;
72325;SDS011;60278;47.980;18.780;2024-01-30T11:46:56;21.90;;;12.23;;
72325;SDS011;60278;47.980;18.780;2024-01-30T11:49:58;19.52;;;11.80;;
72325;SDS011;60278;47.980;18.780;2024-01-30T11:53:02;21.67;;;14.00;;
72325;SDS011;60278;47.980;18.780;2024-01-30T11:56:08;21.27;;;13.60;;
72325;SDS011;60278;47.980;18.780;2024-01-30T11:59:10;20.43;;;12.97;;
72325;SDS011;60278;47.980;18.780;2024-01-30T12:02:16;21.80;;;13.85;;
72325;SDS011;60278;47.980;18.780;2024-01-30T12:05:19;23.02;;;12.55;;
72325;SDS011;60278;47.980;18.780;2024-01-30T12:08:22;19.90;;;11.93;;
72325;SDS011;60278;47.980;18.780;2024-01-30T12:11:24;20.37;;;12.93;;
72325;SDS011;60278;47.980;18.780;2024-01-30T12:14:26;18.07;;;11.57;;
72325;SDS011;60278;47.980;18.780;2024-01-30T12:17:29;18.70;;;11.77;;
72325;SDS011;60278;47.980;18.780;2024-01-30T12:20:32;18.88;;;11.82;;
72325;SDS011;60278;47.980;18.780;2024-01-30T12:23:34;21.20;;;12.23;;
72325;SDS011;60278;47.980;18.780;2024-01-30T12:26:36;18.87;;;11.53;;
72325;SDS011;60278;47.980;18.780;2024-01-30T12:29:41;18.90;;;12.10;;
72325;SDS011;60278;47.980;18.780;2024-01-30T12:32:44;16.48;;;10.63;;
72325;SDS011;60278;47.980;18.780;2024-01-30T12:35:46;18.02;;;12.27;;
72325;SDS011;60278;47.980;18.780;2024-01-30T12:39:03;21.20;;;12.23;;
72325;SDS011;60278;47.980;18.780;2024-01-30T12:42:06;19.90;;;12.13;;
72325;SDS011;60278;47.980;18.780;2024-01-30T12:45:08;28.10;;;16.33;;
72325;SDS011;60278;47.980;18.780;2024-01-30T12:48:10;20.80;;;12.65;;
72325;SDS011;60278;47.980;18.780;2024-01-30T12:51:12;24.17;;;14.25;;
72325;SDS011;60278;47.980;18.780;2024-01-30T12:54:14;21.38;;;13.45;;
72325;SDS011;60278;47.980;18.780;2024-01-30T12:57:17;24.03;;;13.70;;
72325;SDS011;60278;47.980;18.780;2024-01-30T13:00:19;19.33;;;10.90;;
72325;SDS011;60278;47.980;18.780;2024-01-30T13:03:21;26.63;;;13.13;;
72325;SDS011;60278;47.980;18.780;2024-01-30T13:06:24;21.92;;;13.32;;
72325;SDS011;60278;47.980;18.780;2024-01-30T13:09:26;23.60;;;11.50;;
72325;SDS011;60278;47.980;18.780;2024-01-30T13:12:28;16.30;;;9.70;;
72325;SDS011;60278;47.980;18.780;2024-01-30T13:15:31;20.93;;;11.20;;
72325;SDS011;60278;47.980;18.780;2024-01-30T13:18:34;23.38;;;13.77;;
72325;SDS011;60278;47.980;18.780;2024-01-30T13:21:39;18.63;;;12.68;;
72325;SDS011;60278;47.980;18.780;2024-01-30T13:24:41;20.50;;;10.18;;
72325;SDS011;60278;47.980;18.780;2024-01-30T13:27:43;17.60;;;9.30;;
72325;SDS011;60278;47.980;18.780;2024-01-30T13:30:45;19.53;;;10.80;;
72325;SDS011;60278;47.980;18.780;2024-01-30T13:33:48;19.80;;;11.05;;
72325;SDS011;60278;47.980;18.780;2024-01-30T13:36:51;18.77;;;11.32;;
72325;SDS011;60278;47.980;18.780;2024-01-30T13:39:53;21.50;;;11.77;;
72325;SDS011;60278;47.980;18.780;2024-01-30T13:42:55;20.93;;;11.80;;
72325;SDS011;60278;47.980;18.780;2024-01-30T13:45:58;22.07;;;10.27;;
72325;SDS011;60278;47.980;18.780;2024-01-30T13:49:00;22.77;;;11.77;;
72325;SDS011;60278;47.980;18.780;2024-01-30T13:52:03;29.17;;;16.85;;
72325;SDS011;60278;47.980;18.780;2024-01-30T13:55:05;27.88;;;15.43;;
72325;SDS011;60278;47.980;18.780;2024-01-30T13:58:07;18.27;;;10.03;;
72325;SDS011;60278;47.980;18.780;2024-01-30T14:01:10;36.13;;;20.47;;
72325;SDS011;60278;47.980;18.780;2024-01-30T14:04:12;24.55;;;12.63;;
72325;SDS011;60278;47.980;18.780;2024-01-30T14:07:17;21.85;;;11.13;;
72325;SDS011;60278;47.980;18.780;2024-01-30T14:10:20;25.48;;;14.10;;
72325;SDS011;60278;47.980;18.780;2024-01-30T14:13:22;20.07;;;11.80;;
72325;SDS011;60278;47.980;18.780;2024-01-30T14:16:26;20.67;;;12.33;;
72325;SDS011;60278;47.980;18.780;2024-01-30T14:19:28;23.92;;;11.85;;
72325;SDS011;60278;47.980;18.780;2024-01-30T14:22:30;23.83;;;14.27;;
72325;SDS011;60278;47.980;18.780;2024-01-30T14:25:32;30.25;;;18.02;;
72325;SDS011;60278;47.980;18.780;2024-01-30T14:28:34;35.97;;;19.33;;
72325;SDS011;60278;47.980;18.780;2024-01-30T14:31:37;33.70;;;18.87;;
72325;SDS011;60278;47.980;18.780;2024-01-30T14:34:39;31.25;;;19.30;;
72325;SDS011;60278;47.980;18.780;2024-01-30T14:37:41;32.58;;;18.70;;
72325;SDS011;60278;47.980;18.780;2024-01-30T14:40:44;31.00;;;18.33;;
72325;SDS011;60278;47.980;18.780;2024-01-30T14:43:46;30.47;;;18.63;;
72325;SDS011;60278;47.980;18.780;2024-01-30T14:46:48;34.37;;;18.93;;
72325;SDS011;60278;47.980;18.780;2024-01-30T14:49:50;23.75;;;14.00;;
72325;SDS011;60278;47.980;18.780;2024-01-30T14:52:52;24.45;;;13.93;;
72325;SDS011;60278;47.980;18.780;2024-01-30T14:55:55;26.63;;;12.55;;
72325;SDS011;60278;47.980;18.780;2024-01-30T14:58:59;27.10;;;13.50;;
72325;SDS011;60278;47.980;18.780;2024-01-30T15:02:02;20.87;;;12.87;;
72325;SDS011;60278;47.980;18.780;2024-01-30T15:05:05;33.58;;;19.00;;
72325;SDS011;60278;47.980;18.780;2024-01-30T15:08:09;29.70;;;18.33;;
72325;SDS011;60278;47.980;18.780;2024-01-30T15:11:12;24.02;;;15.30;;
72325;SDS011;60278;47.980;18.780;2024-01-30T15:14:15;31.80;;;17.10;;
72325;SDS011;60278;47.980;18.780;2024-01-30T15:17:17;29.23;;;18.23;;
72325;SDS011;60278;47.980;18.780;2024-01-30T15:20:20;38.72;;;19.50;;
72325;SDS011;60278;47.980;18.780;2024-01-30T15:23:22;30.23;;;16.48;;
72325;SDS011;60278;47.980;18.780;2024-01-30T15:26:25;23.80;;;12.77;;
72325;SDS011;60278;47.980;18.780;2024-01-30T15:29:28;24.70;;;13.50;;
72325;SDS011;60278;47.980;18.780;2024-01-30T15:32:30;20.13;;;12.53;;
72325;SDS011;60278;47.980;18.780;2024-01-30T15:35:32;23.88;;;12.60;;
72325;SDS011;60278;47.980;18.780;2024-01-30T15:38:35;36.17;;;18.13;;
72325;SDS011;60278;47.980;18.780;2024-01-30T15:41:37;20.85;;;12.75;;
72325;SDS011;60278;47.980;18.780;2024-01-30T15:44:39;21.97;;;11.40;;
72325;SDS011;60278;47.980;18.780;2024-01-30T15:47:41;22.00;;;11.73;;
72325;SDS011;60278;47.980;18.780;2024-01-30T15:50:43;21.45;;;11.07;;
72325;SDS011;60278;47.980;18.780;2024-01-30T15:53:45;18.77;;;11.48;;
72325;SDS011;60278;47.980;18.780;2024-01-30T15:56:48;22.17;;;10.30;;
72325;SDS011;60278;47.980;18.780;2024-01-30T15:59:50;21.23;;;12.43;;
72325;SDS011;60278;47.980;18.780;2024-01-30T16:02:52;22.63;;;12.60;;
72325;SDS011;60278;47.980;18.780;2024-01-30T16:05:55;34.58;;;17.83;;
72325;SDS011;60278;47.980;18.780;2024-01-30T16:08:57;26.27;;;13.93;;
72325;SDS011;60278;47.980;18.780;2024-01-30T16:12:00;31.05;;;17.90;;
72325;SDS011;60278;47.980;18.780;2024-01-30T16:15:02;25.90;;;14.30;;
72325;SDS011;60278;47.980;18.780;2024-01-30T16:18:04;43.90;;;19.07;;
72325;SDS011;60278;47.980;18.780;2024-01-30T16:21:06;59.05;;;29.23;;
72325;SDS011;60278;47.980;18.780;2024-01-30T16:24:10;27.05;;;13.40;;
72325;SDS011;60278;47.980;18.780;2024-01-30T16:27:13;40.08;;;19.48;;
72325;SDS011;60278;47.980;18.780;2024-01-30T16:30:15;72.27;;;31.90;;
72325;SDS011;60278;47.980;18.780;2024-01-30T16:33:19;54.47;;;24.97;;
72325;SDS011;60278;47.980;18.780;2024-01-30T16:36:22;42.53;;;25.23;;
72325;SDS011;60278;47.980;18.780;2024-01-30T16:39:24;35.90;;;19.55;;
72325;SDS011;60278;47.980;18.780;2024-01-30T16:42:26;29.58;;;15.70;;
72325;SDS011;60278;47.980;18.780;2024-01-30T16:45:28;26.13;;;15.23;;
72325;SDS011;60278;47.980;18.780;2024-01-30T16:48:31;30.53;;;16.77;;
72325;SDS011;60278;47.980;18.780;2024-01-30T16:51:36;83.15;;;37.92;;
72325;SDS011;60278;47.980;18.780;2024-01-30T16:54:38;64.03;;;29.30;;
72325;SDS011;60278;47.980;18.780;2024-01-30T16:57:40;59.10;;;28.05;;
72325;SDS011;60278;47.980;18.780;2024-01-30T17:00:42;59.13;;;32.03;;
72325;SDS011;60278;47.980;18.780;2024-01-30T17:03:44;68.20;;;33.30;;
72325;SDS011;60278;47.980;18.780;2024-01-30T17:06:49;61.80;;;32.45;;
72325;SDS011;60278;47.980;18.780;2024-01-30T17:09:54;54.42;;;28.77;;
72325;SDS011;60278;47.980;18.780;2024-01-30T17:12:57;50.55;;;28.73;;
72325;SDS011;60278;47.980;18.780;2024-01-30T17:16:01;52.10;;;26.93;;
72325;SDS011;60278;47.980;18.780;2024-01-30T17:19:04;70.28;;;34.97;;
72325;SDS011;60278;47.980;18.780;2024-01-30T17:22:07;96.38;;;53.40;;
72325;SDS011;60278;47.980;18.780;2024-01-30T17:25:09;60.90;;;33.50;;
72325;SDS011;60278;47.980;18.780;2024-01-30T17:28:11;43.78;;;25.42;;
72325;SDS011;60278;47.980;18.780;2024-01-30T17:31:15;60.20;;;29.50;;